Etusivu
METAR-TAF:

METAR-TAF

Lentoasemat :

Ketchikan, Alaska, Yhdysvallat

Leveyspiiri: 55-21-20N, Pituuspiiri: 131-42-49W, korkeus merenpinnasta: 27 m

Tämänhetkinen sää

Tämä raportti tehtiin 32 minuuttia sitten, kello 17.53 UTC
Tuuli 13 kn pohjoisen/luoteesta
Lämpötila 13°C
Kosteus 62%
Ilmanpaine 1014 hPa
Näkyvyys: 16.1 km
selkeää

METAR: PAKT 211753Z 34013KT 10SM CLR 13/06 A2993 RMK AO2 SLP135 HARBOR WIND 30014KT T01330061 10133 20078 57011

Aika: 10:25 (18:25 UTC)

Sääennuste

Tämä raportti tehtiin 58 minuuttia sitten, kello 17.27 UTC
Ennuste voimassa 21. päivästä klo 18 UTC - 22. päivään klo 18 UTC
Tuuli 10 kn pohjoisen/luoteesta
Näkyvyys: 10 km
Hajanaisia pilviä 5000 ft:n korkeudessa
From 22. päivästä klo 0500 UTC
Tuuli 4 kn eri suunnista
Näkyvyys: 10 km
selkeää

TAF: PAKT 211727Z 2118/2218 33010KT P6SM SCT050 FM220500 VRB04KT P6SM SKC AMD LTD TO CLD VIS AND WIND 2206/2215

Säähavainnot ja -ennusteet yli 4000 lentoasemalta (METAR- ja TAF-raportit).

Käytössä olevat sääasemat on merkitty karttaan keltaisilla ja punaisilla pisteillä.

Aseta hiiri pisteen päälle nähdäksesi sääaseman nimen.

Klikkaa sitten nähdäksesi säähavainnot ja -ennusteet.

Kartan vaihtaminen: klikkaa mustalla rastilla varustettuja vihreitä pisteitä, niin voit zoomata sisään; viivalla varustettua vihreää pistettä, niin voit zoomata ulos tai vihreitä nuolia, niin pääset viereisille kartoille.


METAR-TAF: